createdAt,value
2022-11-28T00:02:22.384Z,98336.81
2022-11-28T00:04:52.875Z,98335.72
2022-11-28T00:07:20.772Z,98331.13
2022-11-28T00:09:48.625Z,98330.91
2022-11-28T00:12:16.315Z,98324.25
2022-11-28T00:14:45.335Z,98337.16
2022-11-28T00:17:13.002Z,98336.94
2022-11-28T00:19:40.639Z,98335.28
2022-11-28T00:22:08.384Z,98324.31
2022-11-28T00:24:36.116Z,98311.50
2022-11-28T00:27:03.759Z,98313.63
2022-11-28T00:29:31.479Z,98312.94
2022-11-28T00:32:00.573Z,98318.44
2022-11-28T00:34:28.235Z,98309.16
2022-11-28T00:36:55.866Z,98298.53
2022-11-28T00:39:23.811Z,98293.94
2022-11-28T00:41:51.488Z,98291.78
2022-11-28T00:44:19.197Z,98288.56
2022-11-28T00:46:46.999Z,98279.22
2022-11-28T00:49:16.016Z,98275.38
2022-11-28T00:51:43.721Z,98269.41
2022-11-28T00:54:11.591Z,98271.00
2022-11-28T00:56:40.622Z,98271.00
2022-11-28T00:59:08.436Z,98263.38
2022-11-28T01:01:37.983Z,98264.19
2022-11-28T01:04:09.336Z,98262.22
2022-11-28T01:06:40.788Z,98254.81
2022-11-28T01:09:11.420Z,98257.22
2022-11-28T01:11:40.005Z,98260.53
2022-11-28T01:14:07.954Z,98258.06
2022-11-28T01:16:35.692Z,98258.25
2022-11-28T01:19:03.479Z,98268.97
2022-11-28T01:21:31.110Z,98265.41
2022-11-28T01:24:00.239Z,98253.09
2022-11-28T01:26:30.627Z,98248.91
2022-11-28T01:28:59.745Z,98237.69
2022-11-28T01:31:29.785Z,98225.47
2022-11-28T01:33:57.949Z,98229.78
2022-11-28T01:36:26.991Z,98230.66
2022-11-28T01:38:54.943Z,98218.47
2022-11-28T01:41:26.753Z,98210.47
2022-11-28T01:44:06.585Z,98213.09
2022-11-28T01:46:35.408Z,98205.19
2022-11-28T01:49:11.368Z,98207.47
2022-11-28T01:51:41.921Z,98205.59
2022-11-28T01:54:09.891Z,98197.09
2022-11-28T01:56:47.021Z,98197.38
2022-11-28T01:59:16.775Z,98195.88
2022-11-28T02:01:45.631Z,98191.09
2022-11-28T02:04:14.721Z,98184.50
2022-11-28T02:06:43.583Z,98182.91
2022-11-28T02:09:12.720Z,98178.53
2022-11-28T02:12:07.337Z,98176.13
2022-11-28T02:14:53.999Z,98173.34
2022-11-28T02:17:33.554Z,98192.31
2022-11-28T02:20:25.339Z,98196.81
2022-11-28T02:23:03.227Z,98194.50
2022-11-28T02:26:03.660Z,98184.75
2022-11-28T02:29:19.747Z,98178.25
2022-11-28T02:32:09.804Z,98172.13
2022-11-28T02:34:47.202Z,98168.56
2022-11-28T02:37:23.210Z,98167.16
2022-11-28T02:40:02.017Z,98166.56
2022-11-28T02:42:39.562Z,98150.19
2022-11-28T02:45:13.174Z,98146.38
2022-11-28T02:47:46.381Z,98147.56
2022-11-28T02:50:20.036Z,98135.38
2022-11-28T02:52:51.943Z,98117.81
2022-11-28T02:55:20.219Z,98105.81
2022-11-28T02:57:49.897Z,98090.22
2022-11-28T03:00:29.934Z,98077.22
2022-11-28T03:03:42.962Z,98080.44
2022-11-28T03:06:20.878Z,98093.81
2022-11-28T03:09:03.585Z,98085.63
2022-11-28T03:11:47.437Z,98067.44
2022-11-28T03:14:27.282Z,98077.22
2022-11-28T03:17:03.156Z,98073.25
2022-11-28T03:19:35.768Z,98076.34
2022-11-28T03:22:11.201Z,98077.06
2022-11-28T03:24:45.598Z,98080.22
2022-11-28T03:27:18.789Z,98077.66
2022-11-28T03:29:50.556Z,98063.66
2022-11-28T03:32:23.953Z,98062.06
2022-11-28T03:34:58.413Z,98049.06
2022-11-28T03:37:30.865Z,98035.09
2022-11-28T03:40:04.333Z,98034.00
2022-11-28T03:42:37.265Z,98014.50
2022-11-28T03:45:11.203Z,98010.00
2022-11-28T03:47:45.517Z,98008.13
2022-11-28T03:50:18.813Z,98022.91
2022-11-28T03:52:51.392Z,98041.84
2022-11-28T03:55:22.992Z,98058.63
2022-11-28T03:57:59.066Z,98066.63
2022-11-28T04:00:27.357Z,98054.06
2022-11-28T04:03:02.874Z,98041.66
2022-11-28T04:05:38.259Z,98044.88
2022-11-28T04:08:15.042Z,98047.84
2022-11-28T04:10:46.481Z,98044.53
2022-11-28T04:13:20.027Z,98038.03
2022-11-28T04:15:55.205Z,98048.03
2022-11-28T04:18:27.839Z,98064.19
2022-11-28T04:21:01.005Z,98053.56
2022-11-28T04:23:31.248Z,98051.69
2022-11-28T04:26:04.064Z,98084.84
2022-11-28T04:28:36.142Z,98085.72
2022-11-28T04:31:06.860Z,98070.91
2022-11-28T04:33:40.729Z,98052.56
2022-11-28T04:36:13.118Z,98041.56
2022-11-28T04:38:43.375Z,98040.97
2022-11-28T04:41:16.141Z,98060.59
2022-11-28T04:43:48.370Z,98064.56
2022-11-28T04:46:20.019Z,98063.78
2022-11-28T04:48:47.758Z,98077.69
2022-11-28T04:51:21.792Z,98076.25
2022-11-28T04:53:55.276Z,98073.66
2022-11-28T04:56:29.329Z,98084.59
2022-11-28T04:58:57.884Z,98077.69
2022-11-28T05:01:28.840Z,98067.88
2022-11-28T05:03:57.278Z,98076.97
2022-11-28T05:06:30.866Z,98070.56
2022-11-28T05:08:59.049Z,98070.47
2022-11-28T05:11:27.740Z,98055.59
2022-11-28T05:13:56.504Z,98059.59
2022-11-28T05:16:24.414Z,98035.50
2022-11-28T05:18:52.193Z,98013.25
2022-11-28T05:21:19.836Z,98006.66
2022-11-28T05:23:49.208Z,98012.50
2022-11-28T05:26:19.132Z,98003.47
2022-11-28T05:28:47.425Z,98005.66
2022-11-28T05:31:15.499Z,97991.59
2022-11-28T05:33:43.217Z,97997.50
2022-11-28T05:36:13.750Z,97995.31
2022-11-28T05:38:41.878Z,98002.66
2022-11-28T05:41:11.508Z,97998.06
2022-11-28T05:43:39.178Z,97991.28
2022-11-28T05:46:07.371Z,97985.88
2022-11-28T05:48:35.039Z,97982.06
2022-11-28T05:51:05.423Z,97963.56
2022-11-28T05:53:33.131Z,97952.28
2022-11-28T05:56:01.206Z,97946.28
2022-11-28T05:58:30.241Z,97920.72
2022-11-28T06:00:58.527Z,97909.72
2022-11-28T06:03:26.178Z,97903.78
2022-11-28T06:05:53.865Z,97906.97
2022-11-28T06:08:21.596Z,97924.56
2022-11-28T06:10:58.068Z,97990.41
2022-11-28T06:13:25.917Z,98006.41
2022-11-28T06:15:54.911Z,97994.00
2022-11-28T06:18:23.655Z,98000.72
2022-11-28T06:20:51.345Z,97992.63
2022-11-28T06:23:19.092Z,97992.00
2022-11-28T06:25:46.776Z,97995.81
2022-11-28T06:28:14.500Z,97985.91
2022-11-28T06:30:44.486Z,97983.09
2022-11-28T06:33:13.528Z,98002.97
2022-11-28T06:35:41.406Z,98000.03
2022-11-28T06:38:14.079Z,97995.97
2022-11-28T06:40:42.173Z,98000.66
2022-11-28T06:43:10.165Z,97993.97
2022-11-28T06:45:37.953Z,97999.91
2022-11-28T06:48:05.896Z,98025.34
2022-11-28T06:50:34.995Z,98028.75
2022-11-28T06:53:05.031Z,98025.00
2022-11-28T06:55:32.729Z,98013.66
2022-11-28T06:58:00.567Z,97991.88
2022-11-28T07:00:31.080Z,98009.09
2022-11-28T07:02:59.206Z,97995.84
2022-11-28T07:05:27.840Z,98027.19
2022-11-28T07:07:56.944Z,98022.38
2022-11-28T07:10:25.622Z,97998.22
2022-11-28T07:12:55.518Z,97987.03
2022-11-28T07:15:23.665Z,97977.81
2022-11-28T07:17:51.536Z,97988.50
2022-11-28T07:20:19.302Z,97999.31
2022-11-28T07:22:48.994Z,97983.41
2022-11-28T07:25:18.187Z,97992.31
2022-11-28T07:27:45.835Z,98001.00
2022-11-28T07:30:14.001Z,98000.63
2022-11-28T07:32:41.909Z,98007.50
2022-11-28T07:35:10.011Z,97996.34
2022-11-28T07:37:37.682Z,97989.97
2022-11-28T07:40:06.531Z,97997.44
2022-11-28T07:42:35.623Z,98009.00
2022-11-28T07:45:03.313Z,98017.00
2022-11-28T07:47:31.101Z,98025.31
2022-11-28T07:49:58.874Z,98027.63
2022-11-28T07:52:26.584Z,98030.00
2022-11-28T07:54:54.276Z,98028.38
2022-11-28T07:57:21.966Z,98019.78
2022-11-28T07:59:51.145Z,98024.66
2022-11-28T08:02:18.881Z,98007.94
2022-11-28T08:04:50.626Z,98005.56
2022-11-28T08:07:21.755Z,98014.53
2022-11-28T08:09:49.467Z,98007.16
2022-11-28T08:12:17.157Z,98004.94
2022-11-28T08:14:45.231Z,98008.16
2022-11-28T08:17:14.432Z,98014.56
2022-11-28T08:19:42.170Z,98014.16
2022-11-28T08:22:09.819Z,98011.69
2022-11-28T08:24:37.535Z,98017.84
2022-11-28T08:27:05.221Z,98018.34
2022-11-28T08:29:32.891Z,98016.34
2022-11-28T08:32:00.530Z,98014.09
2022-11-28T08:34:29.587Z,98006.09
2022-11-28T08:36:57.187Z,98002.50
2022-11-28T08:39:25.648Z,98011.63
2022-11-28T08:41:54.183Z,98005.31
2022-11-28T08:44:21.904Z,98000.41
2022-11-28T08:46:49.724Z,98000.28
2022-11-28T08:49:17.404Z,97999.78
2022-11-28T08:51:46.639Z,98008.88
2022-11-28T08:54:14.500Z,98004.47
2022-11-28T08:56:42.178Z,98009.50
2022-11-28T08:59:10.687Z,98011.78
2022-11-28T09:01:39.577Z,98015.88
2022-11-28T09:04:07.444Z,98016.50
2022-11-28T09:06:36.649Z,98010.59
2022-11-28T09:09:05.623Z,98011.59
2022-11-28T09:11:33.848Z,98004.53
2022-11-28T09:14:01.640Z,98004.97
2022-11-28T09:16:29.515Z,98001.00
2022-11-28T09:18:59.279Z,98002.19
2022-11-28T09:21:27.581Z,98010.34
2022-11-28T09:23:56.815Z,98012.94
2022-11-28T09:26:26.549Z,98007.41
2022-11-28T09:28:54.552Z,98007.78
2022-11-28T09:31:22.979Z,97999.69
2022-11-28T09:33:50.688Z,97989.03
2022-11-28T09:36:20.383Z,97989.78
2022-11-28T09:38:48.339Z,97983.31
2022-11-28T09:41:43.339Z,97983.06
2022-11-28T09:44:19.541Z,97982.78
2022-11-28T09:46:49.122Z,97991.03
2022-11-28T09:49:27.457Z,97990.66
2022-11-28T09:51:59.661Z,97989.78
2022-11-28T09:54:38.128Z,97980.22
2022-11-28T09:57:11.840Z,97986.00
2022-11-28T09:59:39.585Z,97990.38
2022-11-28T10:02:23.596Z,97988.28
2022-11-28T10:05:01.466Z,97993.06
2022-11-28T10:07:40.162Z,97988.56
2022-11-28T10:10:20.703Z,97984.66
2022-11-28T10:12:57.575Z,97988.91
2022-11-28T10:15:40.987Z,97994.31
2022-11-28T10:18:21.943Z,97997.31
2022-11-28T10:20:55.683Z,97999.16
2022-11-28T10:23:27.091Z,97997.63
2022-11-28T10:25:58.303Z,97997.44
2022-11-28T10:28:31.480Z,97985.78
2022-11-28T10:31:05.536Z,97985.50
2022-11-28T10:33:40.649Z,97988.34
2022-11-28T10:36:18.769Z,97987.44
2022-11-28T10:38:46.536Z,97975.69
2022-11-28T10:41:19.692Z,97984.94
2022-11-28T10:43:56.871Z,97979.81
2022-11-28T10:46:39.477Z,97973.44
2022-11-28T10:49:22.301Z,97973.31
2022-11-28T10:52:01.129Z,97984.31
2022-11-28T10:54:45.941Z,97986.84
2022-11-28T10:57:21.179Z,97999.63
2022-11-28T11:00:03.083Z,97990.53
2022-11-28T11:02:37.636Z,97991.28
2022-11-28T11:05:06.677Z,97984.19
2022-11-28T11:07:35.369Z,97981.97
2022-11-28T11:10:15.379Z,97992.47
2022-11-28T11:12:44.697Z,97998.34
2022-11-28T11:15:24.545Z,97996.09
2022-11-28T11:17:52.673Z,97990.22
2022-11-28T11:20:36.983Z,97977.38
2022-11-28T11:23:14.009Z,97977.69
2022-11-28T11:25:50.683Z,97969.41
2022-11-28T11:28:45.024Z,97970.69
2022-11-28T11:31:21.827Z,97982.50
2022-11-28T11:33:53.288Z,97969.25
2022-11-28T11:36:24.739Z,97968.78
2022-11-28T11:38:52.424Z,97974.19
2022-11-28T11:41:28.513Z,97960.16
2022-11-28T11:43:56.679Z,97961.56
2022-11-28T11:46:25.842Z,97963.34
2022-11-28T11:48:58.064Z,97972.59
2022-11-28T11:51:28.278Z,97969.88
2022-11-28T11:54:03.541Z,97969.06
2022-11-28T11:56:36.463Z,97961.59
2022-11-28T11:59:11.686Z,97975.63
2022-11-28T12:01:43.412Z,97971.97
2022-11-28T12:04:43.696Z,97961.28
2022-11-28T12:07:19.041Z,97976.56
2022-11-28T12:09:50.355Z,97974.00
2022-11-28T12:12:22.579Z,97963.97
2022-11-28T12:14:51.449Z,97975.94
2022-11-28T12:17:48.900Z,97970.03
2022-11-28T12:20:40.874Z,97965.09
2022-11-28T12:23:22.459Z,97948.69
2022-11-28T12:25:55.457Z,97934.22
2022-11-28T12:28:38.723Z,97930.84
2022-11-28T12:31:13.615Z,97933.06
2022-11-28T12:33:55.037Z,97933.53
2022-11-28T12:36:30.175Z,97931.75
2022-11-28T12:39:13.626Z,97924.16
2022-11-28T12:42:06.157Z,97935.94
2022-11-28T12:44:54.585Z,97928.47
2022-11-28T12:47:36.201Z,97937.19
2022-11-28T12:50:18.921Z,97938.13
2022-11-28T12:52:53.748Z,97928.91
2022-11-28T12:55:33.433Z,97924.34
2022-11-28T12:58:07.866Z,97926.53
2022-11-28T13:00:47.583Z,97917.78
2022-11-28T13:03:30.851Z,97920.94
2022-11-28T13:06:11.644Z,97917.78
2022-11-28T13:08:58.233Z,97920.91
2022-11-28T13:11:40.592Z,97922.22
2022-11-28T13:14:15.987Z,97928.75
2022-11-28T13:16:49.079Z,97927.97
2022-11-28T13:19:35.712Z,97922.91
2022-11-28T13:22:14.764Z,97919.72
2022-11-28T13:24:49.453Z,97927.03
2022-11-28T13:27:25.592Z,97927.97
2022-11-28T13:30:02.400Z,97924.16
2022-11-28T13:32:36.987Z,97934.50
2022-11-28T13:35:05.581Z,97932.59
2022-11-28T13:40:36.023Z,97940.88
2022-11-28T13:43:11.878Z,97935.81
2022-11-28T13:45:43.455Z,97936.75
2022-11-28T13:51:36.418Z,97949.63
2022-11-28T13:54:48.675Z,97938.81
2022-11-28T13:57:29.290Z,97942.31
2022-11-28T14:00:01.509Z,97941.38
2022-11-28T14:02:42.180Z,97933.88
2022-11-28T14:05:29.989Z,97932.94
2022-11-28T14:07:59.075Z,97927.84
2022-11-28T14:10:39.890Z,97926.06
2022-11-28T14:13:39.152Z,97931.34
2022-11-28T14:16:22.900Z,97924.00
2022-11-28T14:19:17.794Z,97933.09
2022-11-28T14:21:55.594Z,97935.78
2022-11-28T14:24:37.600Z,97930.53
2022-11-28T14:27:07.053Z,97929.56
2022-11-28T14:29:41.017Z,97936.44
2022-11-28T14:32:30.065Z,97941.06
2022-11-28T14:34:58.649Z,97944.06
2022-11-28T14:37:48.749Z,97956.03
2022-11-28T14:41:06.787Z,97964.97
2022-11-28T14:43:36.818Z,97959.22
2022-11-28T14:46:31.883Z,97957.31
2022-11-28T14:49:21.386Z,97955.06
2022-11-28T14:52:38.529Z,97971.50
2022-11-28T14:55:19.424Z,97965.09
2022-11-28T14:57:59.068Z,97967.47
2022-11-28T15:00:29.727Z,97964.28
2022-11-28T15:03:14.917Z,97963.34
2022-11-28T15:05:46.587Z,97957.63
2022-11-28T15:08:45.459Z,97952.53
2022-11-28T15:11:36.912Z,97956.34
2022-11-28T15:14:21.768Z,97960.19
2022-11-28T15:16:53.138Z,97959.22
2022-11-28T15:19:26.393Z,97956.34
2022-11-28T15:21:55.700Z,97955.06
2022-11-28T15:24:29.665Z,97962.56
2022-11-28T15:26:59.616Z,97957.94
2022-11-28T15:29:29.203Z,97959.84
2022-11-28T15:31:58.922Z,97955.06
2022-11-28T15:34:30.338Z,97956.34
2022-11-28T15:37:00.637Z,97948.72
2022-11-28T15:39:34.774Z,97947.75
2022-11-28T15:42:06.193Z,97939.78
2022-11-28T15:44:34.195Z,97941.19
2022-11-28T15:47:02.177Z,97936.91
2022-11-28T15:49:33.743Z,97945.50
2022-11-28T15:52:03.044Z,97947.59
2022-11-28T15:54:37.525Z,97944.56
2022-11-28T15:57:06.699Z,97944.38
2022-11-28T15:59:34.997Z,97949.63
2022-11-28T16:02:12.823Z,97949.63
2022-11-28T16:04:42.937Z,97938.66
2022-11-28T16:07:14.925Z,97933.72
2022-11-28T16:09:54.517Z,97944.53
2022-11-28T16:12:22.634Z,97944.53
2022-11-28T16:14:53.224Z,97945.47
2022-11-28T16:17:29.058Z,97944.97
2022-11-28T16:19:59.246Z,97951.50
2022-11-28T16:22:34.232Z,97951.06
2022-11-28T16:25:14.699Z,97953.72
2022-11-28T16:27:45.556Z,97953.88
2022-11-28T16:30:33.351Z,97957.09
2022-11-28T16:33:01.131Z,97955.66
2022-11-28T16:35:34.236Z,97955.00
2022-11-28T16:38:07.409Z,97957.88
2022-11-28T16:40:35.179Z,97955.00
2022-11-28T16:43:04.896Z,97941.66
2022-11-28T16:45:34.137Z,97944.69
2022-11-28T16:48:08.647Z,97938.63
2022-11-28T16:50:38.432Z,97943.41
2022-11-28T16:53:06.683Z,97945.13
2022-11-28T16:55:46.063Z,97950.53
2022-11-28T16:58:19.647Z,97954.97
2022-11-28T17:01:03.580Z,97950.53
2022-11-28T17:03:49.331Z,97947.97
2022-11-28T17:06:22.074Z,97944.81
2022-11-28T17:08:50.018Z,97951.31
2022-11-28T17:11:21.279Z,97959.44
2022-11-28T17:13:48.996Z,97953.06
2022-11-28T17:16:20.241Z,97958.28
2022-11-28T17:18:48.336Z,97952.09
2022-11-28T17:21:18.145Z,97957.53
2022-11-28T17:23:47.248Z,97948.94
2022-11-28T17:26:14.904Z,97957.84
2022-11-28T17:28:42.662Z,97948.91
2022-11-28T17:31:13.617Z,97954.78
2022-11-28T17:33:44.631Z,97953.97
2022-11-28T17:36:13.324Z,97949.50
2022-11-28T17:38:41.007Z,97954.00
2022-11-28T17:41:13.381Z,97954.31
2022-11-28T17:43:41.458Z,97960.63
2022-11-28T17:46:09.551Z,97957.94
2022-11-28T17:48:37.225Z,97956.69
2022-11-28T17:51:06.096Z,97951.09
2022-11-28T17:53:33.848Z,97951.59
2022-11-28T17:56:01.586Z,97948.72
2022-11-28T17:58:30.929Z,97953.97
2022-11-28T18:01:00.722Z,97961.66
2022-11-28T18:03:28.844Z,97955.91
2022-11-28T18:05:56.586Z,97951.75
2022-11-28T18:08:24.303Z,97952.72
2022-11-28T18:10:51.961Z,97951.09
2022-11-28T18:13:19.660Z,97946.19
2022-11-28T18:15:49.073Z,97945.22
2022-11-28T18:18:16.822Z,97949.25
2022-11-28T18:20:44.530Z,97943.47
2022-11-28T18:23:12.517Z,97944.75
2022-11-28T18:25:42.676Z,97937.28
2022-11-28T18:28:13.297Z,97940.47
2022-11-28T18:30:47.082Z,97942.06
2022-11-28T18:33:16.597Z,97930.88
2022-11-28T18:35:44.273Z,97942.50
2022-11-28T18:38:12.662Z,97943.16
2022-11-28T18:40:40.392Z,97940.16
2022-11-28T18:43:08.090Z,97945.69
2022-11-28T18:45:36.229Z,97939.34
2022-11-28T18:48:04.033Z,97938.38
2022-11-28T18:50:33.108Z,97940.94
2022-11-28T18:53:01.999Z,97952.03
2022-11-28T18:55:29.712Z,97941.22
2022-11-28T18:57:57.345Z,97947.59
2022-11-28T19:00:25.584Z,97949.50
2022-11-28T19:02:53.265Z,97952.09
2022-11-28T19:05:20.925Z,97949.50
2022-11-28T19:07:50.050Z,97946.00
2022-11-28T19:10:20.572Z,97952.22
2022-11-28T19:12:48.734Z,97958.53
2022-11-28T19:15:16.690Z,97956.47
2022-11-28T19:17:44.383Z,97954.59
2022-11-28T19:20:13.347Z,97954.88
2022-11-28T19:22:41.137Z,97947.25
2022-11-28T19:25:10.970Z,97954.13
2022-11-28T19:27:38.903Z,97954.25
2022-11-28T19:30:08.016Z,97953.13
2022-11-28T19:32:36.531Z,97955.22
2022-11-28T19:35:04.434Z,97952.03
2022-11-28T19:37:32.290Z,97957.44
2022-11-28T19:40:02.846Z,97956.31
2022-11-28T19:42:32.319Z,97957.88
2022-11-28T19:45:00.211Z,97951.09
2022-11-28T19:47:28.107Z,97958.41
2022-11-28T19:49:55.926Z,97964.56
2022-11-28T19:52:23.870Z,97966.84
2022-11-28T19:54:51.693Z,97967.63
2022-11-28T19:57:20.801Z,97968.13
2022-11-28T19:59:49.904Z,97974.00
2022-11-28T20:02:17.936Z,97983.22
2022-11-28T20:04:45.739Z,97983.06
2022-11-28T20:07:13.878Z,97972.00
2022-11-28T20:09:41.823Z,97982.69
2022-11-28T20:12:09.842Z,97976.63
2022-11-28T20:14:37.835Z,97979.97
2022-11-28T20:17:07.231Z,97985.84
2022-11-28T20:19:35.110Z,97984.59
2022-11-28T20:22:02.985Z,97985.84
2022-11-28T20:24:30.818Z,97993.75
2022-11-28T20:26:58.513Z,97991.72
2022-11-28T20:29:27.924Z,97996.03
2022-11-28T20:31:57.347Z,97999.84
2022-11-28T20:34:26.893Z,98002.06
2022-11-28T20:36:54.923Z,97997.56
2022-11-28T20:39:23.779Z,97999.47
2022-11-28T20:41:54.339Z,97999.63
2022-11-28T20:44:22.457Z,98000.06
2022-11-28T20:46:50.831Z,98004.25
2022-11-28T20:49:35.499Z,98008.69
2022-11-28T20:52:03.706Z,98007.06
2022-11-28T20:54:31.691Z,98002.97
2022-11-28T20:59:48.086Z,98008.69
2022-11-28T21:02:15.836Z,98004.16
2022-11-28T21:04:45.580Z,97999.41
2022-11-28T21:07:13.387Z,98004.19
2022-11-28T21:09:41.106Z,98006.28
2022-11-28T21:12:10.745Z,98004.25
2022-11-28T21:14:38.478Z,98004.88
2022-11-28T21:17:06.251Z,98004.25
2022-11-28T21:19:34.062Z,98007.31
2022-11-28T21:22:03.221Z,98010.81
2022-11-28T21:24:31.068Z,98013.72
2022-11-28T21:26:58.773Z,98015.94
2022-11-28T21:29:26.869Z,98015.41
2022-11-28T21:31:54.898Z,98020.38
2022-11-28T21:34:22.861Z,98021.00
2022-11-28T21:36:50.610Z,98014.97
2022-11-28T21:39:24.009Z,98015.94
2022-11-28T21:41:53.081Z,98017.03
2022-11-28T21:44:21.162Z,98015.31
2022-11-28T21:46:48.946Z,98011.41
2022-11-28T21:49:17.128Z,98016.00
2022-11-28T21:51:44.908Z,98008.59
2022-11-28T21:54:13.713Z,98010.00
2022-11-28T21:56:42.798Z,98008.47
2022-11-28T21:59:10.561Z,98003.81
2022-11-28T22:01:38.417Z,98009.56
2022-11-28T22:04:06.292Z,98004.97
2022-11-28T22:06:34.317Z,98004.16
2022-11-28T22:09:09.115Z,98005.75
2022-11-28T22:11:37.972Z,98003.19
2022-11-28T22:14:07.104Z,98009.56
2022-11-28T22:16:34.901Z,98007.31
2022-11-28T22:19:02.666Z,98012.41
2022-11-28T22:24:18.569Z,97999.63
2022-11-28T22:26:46.336Z,98007.13
2022-11-28T22:29:16.167Z,98014.34
2022-11-28T22:31:44.043Z,98005.75
2022-11-28T22:34:11.916Z,98008.59
2022-11-28T22:36:39.712Z,98008.53
2022-11-28T22:39:07.455Z,98009.22
2022-11-28T22:41:35.259Z,98010.94
2022-11-28T22:44:04.347Z,98014.25
2022-11-28T22:46:33.721Z,98016.59
2022-11-28T22:49:02.225Z,98019.03
2022-11-28T22:51:31.175Z,98014.88
2022-11-28T22:54:01.214Z,98008.31
2022-11-28T22:56:30.035Z,98012.78
2022-11-28T22:58:57.834Z,98019.41
2022-11-28T23:01:27.262Z,98009.81
2022-11-28T23:03:56.894Z,98007.63
2022-11-28T23:06:26.712Z,98009.22
2022-11-28T23:08:55.612Z,97992.00
2022-11-28T23:11:25.599Z,98010.44
2022-11-28T23:13:53.837Z,98005.19
2022-11-28T23:16:24.597Z,98003.41
2022-11-28T23:18:54.343Z,98001.13
2022-11-28T23:21:25.154Z,97994.75
2022-11-28T23:23:53.217Z,98005.25
2022-11-28T23:26:24.933Z,98002.38
2022-11-28T23:28:53.240Z,98002.88
2022-11-28T23:31:23.031Z,98008.72
2022-11-28T23:33:51.092Z,97999.97
2022-11-28T23:36:20.628Z,98005.19
2022-11-28T23:38:52.429Z,97998.09
2022-11-28T23:41:20.422Z,97994.75
2022-11-28T23:43:48.606Z,97998.19
2022-11-28T23:46:17.482Z,97989.38
2022-11-28T23:48:46.975Z,97992.53
2022-11-28T23:51:20.037Z,97989.00
2022-11-28T23:53:49.808Z,97989.03
2022-11-28T23:56:18.877Z,97989.38
2022-11-28T23:58:47.285Z,97986.78
